createdAt,value
2018-12-30T00:01:44.981Z,95633.15
2018-12-30T00:04:11.317Z,95634.81
2018-12-30T00:06:40.161Z,95629.69
2018-12-30T00:09:04.050Z,95636.86
2018-12-30T00:11:30.526Z,95638.59
2018-12-30T00:13:56.953Z,95637.52
2018-12-30T00:16:23.300Z,95636.89
2018-12-30T00:18:49.635Z,95637.73
2018-12-30T00:21:16.051Z,95641.08
2018-12-30T00:23:42.380Z,95637.90
2018-12-30T00:26:08.712Z,95640.63
2018-12-30T00:28:35.072Z,95640.39
2018-12-30T00:31:01.464Z,95640.64
2018-12-30T00:33:27.813Z,95633.87
2018-12-30T00:35:54.199Z,95634.29
2018-12-30T00:38:20.583Z,95636.55
2018-12-30T00:40:47.098Z,95636.02
2018-12-30T00:43:13.431Z,95642.13
2018-12-30T00:45:39.804Z,95644.41
2018-12-30T00:48:06.127Z,95644.93
2018-12-30T00:50:32.467Z,95643.86
2018-12-30T00:52:58.823Z,95636.09
2018-12-30T00:55:25.207Z,95636.27
2018-12-30T00:57:51.538Z,95637.55
2018-12-30T01:00:17.865Z,95637.00
2018-12-30T01:02:44.245Z,95640.64
2018-12-30T01:05:10.672Z,95635.50
2018-12-30T01:07:36.956Z,95635.72
2018-12-30T01:10:03.410Z,95637.23
2018-12-30T01:12:29.779Z,95638.66
2018-12-30T01:14:56.144Z,95633.87
2018-12-30T01:17:22.491Z,95637.62
2018-12-30T01:19:48.868Z,95632.77
2018-12-30T01:22:15.199Z,95628.40
2018-12-30T01:24:41.575Z,95630.45
2018-12-30T01:27:07.955Z,95629.44
2018-12-30T01:29:34.300Z,95626.29
2018-12-30T01:32:00.680Z,95626.36
2018-12-30T01:34:27.019Z,95620.22
2018-12-30T01:36:53.485Z,95614.75
2018-12-30T01:39:19.820Z,95617.94
2018-12-30T01:41:46.120Z,95618.59
2018-12-30T01:44:12.477Z,95616.20
2018-12-30T01:46:38.810Z,95611.35
2018-12-30T01:49:05.212Z,95606.39
2018-12-30T01:51:33.111Z,95612.60
2018-12-30T01:53:57.971Z,95611.53
2018-12-30T01:56:24.309Z,95608.58
2018-12-30T01:58:50.630Z,95610.90
2018-12-30T02:01:17.016Z,95605.05
2018-12-30T02:03:43.344Z,95598.81
2018-12-30T02:06:09.676Z,95604.73
2018-12-30T02:08:36.212Z,95596.14
2018-12-30T02:11:02.543Z,95596.86
2018-12-30T02:13:28.872Z,95598.70
2018-12-30T02:15:55.210Z,95590.17
2018-12-30T02:18:21.581Z,95594.61
2018-12-30T02:20:47.913Z,95588.69
2018-12-30T02:23:14.405Z,95584.70
2018-12-30T02:25:40.729Z,95577.46
2018-12-30T02:28:07.053Z,95579.20
2018-12-30T02:30:33.400Z,95573.96
2018-12-30T02:32:59.779Z,95570.70
2018-12-30T02:35:26.103Z,95562.17
2018-12-30T02:37:52.501Z,95562.42
2018-12-30T02:40:18.837Z,95562.70
2018-12-30T02:42:45.249Z,95555.84
2018-12-30T02:45:11.611Z,95557.30
2018-12-30T02:47:37.949Z,95550.71
2018-12-30T02:50:04.358Z,95552.36
2018-12-30T02:52:30.632Z,95549.43
2018-12-30T02:54:57.006Z,95542.73
2018-12-30T02:57:23.349Z,95540.83
2018-12-30T02:59:49.722Z,95542.73
2018-12-30T03:02:16.063Z,95541.66
2018-12-30T03:04:42.448Z,95538.62
2018-12-30T03:07:08.775Z,95544.02
2018-12-30T03:09:35.167Z,95540.75
2018-12-30T03:12:01.475Z,95542.03
2018-12-30T03:14:27.807Z,95536.70
2018-12-30T03:16:54.198Z,95536.95
2018-12-30T03:19:20.590Z,95539.55
2018-12-30T03:21:46.913Z,95532.86
2018-12-30T03:24:13.290Z,95534.52
2018-12-30T03:26:39.617Z,95529.64
2018-12-30T03:29:06.003Z,95532.93
2018-12-30T03:31:32.348Z,95528.09
2018-12-30T03:33:58.746Z,95527.91
2018-12-30T03:36:25.077Z,95524.26
2018-12-30T03:38:51.446Z,95527.00
2018-12-30T03:41:17.811Z,95517.02
2018-12-30T03:43:44.186Z,95519.77
2018-12-30T03:46:10.514Z,95518.17
2018-12-30T03:48:36.887Z,95508.22
2018-12-30T03:51:03.297Z,95511.31
2018-12-30T03:53:29.627Z,95510.97
2018-12-30T03:55:55.951Z,95509.38
2018-12-30T03:58:22.288Z,95511.13
2018-12-30T04:00:48.716Z,95510.16
2018-12-30T04:03:15.068Z,95513.80
2018-12-30T04:05:41.446Z,95511.13
2018-12-30T04:08:07.807Z,95508.56
2018-12-30T04:10:34.178Z,95511.87
2018-12-30T04:13:00.512Z,95511.62
2018-12-30T04:15:26.841Z,95511.14
2018-12-30T04:17:53.231Z,95519.38
2018-12-30T04:20:19.547Z,95516.75
2018-12-30T04:22:45.933Z,95519.66
2018-12-30T04:25:12.276Z,95513.25
2018-12-30T04:27:38.656Z,95510.48
2018-12-30T04:30:05.029Z,95519.00
2018-12-30T04:32:31.375Z,95515.46
2018-12-30T04:34:57.703Z,95514.08
2018-12-30T04:37:24.081Z,95514.53
2018-12-30T04:39:50.410Z,95510.78
2018-12-30T04:42:16.800Z,95513.42
2018-12-30T04:44:43.136Z,95508.75
2018-12-30T04:47:09.481Z,95512.14
2018-12-30T04:49:35.889Z,95511.13
2018-12-30T04:52:02.184Z,95511.23
2018-12-30T04:54:28.516Z,95513.22
2018-12-30T04:56:54.861Z,95511.62
2018-12-30T04:59:21.245Z,95511.31
2018-12-30T05:01:47.647Z,95511.23
2018-12-30T05:04:14.016Z,95508.22
2018-12-30T05:06:40.347Z,95509.05
2018-12-30T05:09:06.796Z,95511.89
2018-12-30T05:11:33.139Z,95513.25
2018-12-30T05:13:59.489Z,95516.63
2018-12-30T05:16:25.811Z,95520.48
2018-12-30T05:18:52.328Z,95516.44
2018-12-30T05:21:18.735Z,95512.32
2018-12-30T05:23:45.202Z,95511.23
2018-12-30T05:26:11.623Z,95509.68
2018-12-30T05:28:37.997Z,95511.67
2018-12-30T05:31:04.387Z,95510.39
2018-12-30T05:33:30.716Z,95509.68
2018-12-30T05:35:57.091Z,95508.75
2018-12-30T05:38:23.423Z,95510.20
2018-12-30T05:40:49.775Z,95510.78
2018-12-30T05:43:16.199Z,95510.97
2018-12-30T05:45:42.562Z,95507.28
2018-12-30T05:48:11.922Z,95509.67
2018-12-30T05:50:38.240Z,95511.49
2018-12-30T05:53:04.625Z,95511.87
2018-12-30T05:55:31.021Z,95517.00
2018-12-30T05:57:57.415Z,95516.37
2018-12-30T06:00:23.744Z,95524.71
2018-12-30T06:02:50.168Z,95519.75
2018-12-30T06:05:16.455Z,95523.30
2018-12-30T06:07:42.796Z,95525.23
2018-12-30T06:10:09.125Z,95525.77
2018-12-30T06:12:35.450Z,95525.07
2018-12-30T06:15:01.799Z,95527.08
2018-12-30T06:17:28.118Z,95527.80
2018-12-30T06:19:54.478Z,95529.21
2018-12-30T06:22:20.787Z,95527.08
2018-12-30T06:24:47.135Z,95531.10
2018-12-30T06:27:13.462Z,95534.50
2018-12-30T06:29:39.802Z,95539.17
2018-12-30T06:32:06.129Z,95545.28
2018-12-30T06:34:32.517Z,95534.56
2018-12-30T06:36:58.840Z,95541.73
2018-12-30T06:39:25.212Z,95543.67
2018-12-30T06:41:51.592Z,95545.09
2018-12-30T06:44:17.917Z,95545.48
2018-12-30T06:46:44.254Z,95547.03
2018-12-30T06:49:10.713Z,95555.36
2018-12-30T06:51:36.964Z,95555.36
2018-12-30T06:54:03.279Z,95559.13
2018-12-30T06:56:29.613Z,95557.64
2018-12-30T06:58:56.150Z,95556.74
2018-12-30T07:01:22.568Z,95557.13
2018-12-30T07:03:48.919Z,95559.58
2018-12-30T07:06:15.276Z,95559.86
2018-12-30T07:08:41.605Z,95556.64
2018-12-30T07:11:07.984Z,95553.27
2018-12-30T07:13:34.314Z,95553.75
2018-12-30T07:16:00.672Z,95557.12
2018-12-30T07:18:27.001Z,95552.47
2018-12-30T07:20:53.378Z,95547.59
2018-12-30T07:23:19.702Z,95549.59
2018-12-30T07:25:46.031Z,95546.96
2018-12-30T07:28:12.404Z,95552.16
2018-12-30T07:30:38.735Z,95548.31
2018-12-30T07:33:05.078Z,95549.91
2018-12-30T07:35:31.499Z,95549.70
2018-12-30T07:37:57.793Z,95550.87
2018-12-30T07:40:24.187Z,95557.92
2018-12-30T07:42:50.512Z,95559.09
2018-12-30T07:45:16.889Z,95560.62
2018-12-30T07:47:43.232Z,95561.06
2018-12-30T07:50:09.577Z,95561.90
2018-12-30T07:52:35.999Z,95569.66
2018-12-30T07:55:02.472Z,95563.81
2018-12-30T07:57:28.832Z,95559.96
2018-12-30T07:59:56.059Z,95557.50
2018-12-30T08:02:21.520Z,95560.69
2018-12-30T08:04:47.859Z,95559.50
2018-12-30T08:07:14.185Z,95567.48
2018-12-30T08:09:40.528Z,95564.28
2018-12-30T08:12:06.935Z,95567.38
2018-12-30T08:14:33.275Z,95568.20
2018-12-30T08:16:59.606Z,95570.83
2018-12-30T08:19:25.997Z,95566.15
2018-12-30T08:21:52.327Z,95567.20
2018-12-30T08:24:18.731Z,95564.52
2018-12-30T08:26:45.072Z,95571.59
2018-12-30T08:29:11.424Z,95573.61
2018-12-30T08:31:37.760Z,95573.12
2018-12-30T08:34:04.205Z,95570.83
2018-12-30T08:36:30.462Z,95568.64
2018-12-30T08:38:56.795Z,95576.59
2018-12-30T08:41:23.133Z,95576.59
2018-12-30T08:43:49.457Z,95575.95
2018-12-30T08:46:15.798Z,95578.45
2018-12-30T08:48:42.204Z,95575.69
2018-12-30T08:51:10.276Z,95576.23
2018-12-30T08:53:34.872Z,95579.42
2018-12-30T08:56:01.278Z,95574.78
2018-12-30T08:58:27.613Z,95573.97
2018-12-30T09:00:53.987Z,95572.77
2018-12-30T09:03:20.309Z,95569.81
2018-12-30T09:05:46.656Z,95566.08
2018-12-30T09:08:13.059Z,95563.71
2018-12-30T09:10:39.495Z,95566.63
2018-12-30T09:13:05.823Z,95565.52
2018-12-30T09:15:32.166Z,95566.17
2018-12-30T09:17:58.620Z,95561.95
2018-12-30T09:20:24.956Z,95557.58
2018-12-30T09:22:51.314Z,95557.30
2018-12-30T09:25:17.712Z,95558.22
2018-12-30T09:27:44.059Z,95557.58
2018-12-30T09:30:10.470Z,95554.07
2018-12-30T09:32:36.810Z,95546.38
2018-12-30T09:35:03.173Z,95546.55
2018-12-30T09:37:29.510Z,95547.31
2018-12-30T09:39:55.848Z,95549.68
2018-12-30T09:42:22.192Z,95546.94
2018-12-30T09:44:48.540Z,95543.19
2018-12-30T09:47:14.865Z,95547.58
2018-12-30T09:49:43.422Z,95540.61
2018-12-30T09:52:09.746Z,95541.25
2018-12-30T09:54:36.136Z,95537.70
2018-12-30T09:57:02.495Z,95536.31
2018-12-30T09:59:28.840Z,95533.09
2018-12-30T10:01:55.170Z,95527.87
2018-12-30T10:04:21.497Z,95535.31
2018-12-30T10:06:47.831Z,95524.22
2018-12-30T10:09:14.175Z,95522.11
2018-12-30T10:11:40.493Z,95514.97
2018-12-30T10:14:06.877Z,95517.36
2018-12-30T10:16:33.278Z,95514.61
2018-12-30T10:18:59.605Z,95508.84
2018-12-30T10:21:25.941Z,95508.84
2018-12-30T10:23:53.094Z,95507.90
2018-12-30T10:26:18.677Z,95500.69
2018-12-30T10:28:44.987Z,95504.70
2018-12-30T10:31:11.289Z,95495.27
2018-12-30T10:33:37.611Z,95489.59
2018-12-30T10:36:03.944Z,95486.47
2018-12-30T10:38:30.331Z,95485.83
2018-12-30T10:40:56.687Z,95479.96
2018-12-30T10:43:23.015Z,95474.11
2018-12-30T10:45:49.350Z,95476.41
2018-12-30T10:48:15.731Z,95469.54
2018-12-30T10:50:42.059Z,95471.91
2018-12-30T10:53:08.406Z,95467.88
2018-12-30T10:55:34.766Z,95467.05
2018-12-30T10:58:01.073Z,95464.41
2018-12-30T11:00:27.421Z,95463.58
2018-12-30T11:02:56.236Z,95466.79
2018-12-30T11:05:22.627Z,95462.11
2018-12-30T11:07:48.942Z,95458.52
2018-12-30T11:10:15.251Z,95456.97
2018-12-30T11:12:41.643Z,95458.63
2018-12-30T11:15:07.984Z,95453.13
2018-12-30T11:17:34.384Z,95447.73
2018-12-30T11:20:00.746Z,95447.09
2018-12-30T11:22:27.108Z,95449.38
2018-12-30T11:24:53.445Z,95446.16
2018-12-30T11:27:19.796Z,95447.44
2018-12-30T11:29:46.127Z,95441.77
2018-12-30T11:32:12.457Z,95442.78
2018-12-30T11:34:38.791Z,95442.60
2018-12-30T11:37:05.126Z,95442.60
2018-12-30T11:39:31.448Z,95446.16
2018-12-30T11:41:57.780Z,95450.11
2018-12-30T11:44:24.118Z,95447.28
2018-12-30T11:46:50.481Z,95442.68
2018-12-30T11:49:16.813Z,95441.31
2018-12-30T11:51:43.175Z,95438.19
2018-12-30T11:54:16.255Z,95440.20
2018-12-30T11:56:35.856Z,95442.22
2018-12-30T11:59:02.149Z,95443.50
2018-12-30T12:01:28.481Z,95439.73
2018-12-30T12:03:54.812Z,95435.89
2018-12-30T12:06:21.143Z,95436.45
2018-12-30T12:08:47.640Z,95438.75
2018-12-30T12:11:13.987Z,95432.61
2018-12-30T12:13:40.325Z,95438.11
2018-12-30T12:16:06.701Z,95434.45
2018-12-30T12:18:32.989Z,95439.92
2018-12-30T12:20:59.332Z,95439.28
2018-12-30T12:23:25.670Z,95437.66
2018-12-30T12:25:51.991Z,95441.39
2018-12-30T12:28:18.323Z,95436.72
2018-12-30T12:30:44.651Z,95436.26
2018-12-30T12:33:11.054Z,95437.09
2018-12-30T12:35:37.407Z,95438.64
2018-12-30T12:38:03.745Z,95440.11
2018-12-30T12:40:30.082Z,95443.13
2018-12-30T12:42:56.412Z,95439.66
2018-12-30T12:45:22.803Z,95441.02
2018-12-30T12:47:49.123Z,95443.43
2018-12-30T12:50:15.455Z,95441.31
2018-12-30T12:52:41.802Z,95443.58
2018-12-30T12:55:08.174Z,95444.52
2018-12-30T12:57:34.511Z,95448.37
2018-12-30T13:00:00.842Z,95444.33
2018-12-30T13:02:27.177Z,95443.16
2018-12-30T13:04:53.517Z,95439.58
2018-12-30T13:07:19.894Z,95437.46
2018-12-30T13:09:46.219Z,95441.77
2018-12-30T13:12:12.587Z,95443.43
2018-12-30T13:14:38.919Z,95443.58
2018-12-30T13:17:05.250Z,95440.03
2018-12-30T13:19:31.580Z,95439.39
2018-12-30T13:21:57.980Z,95441.02
2018-12-30T13:24:24.312Z,95438.19
2018-12-30T13:26:50.699Z,95437.66
2018-12-30T13:29:17.015Z,95436.07
2018-12-30T13:31:43.377Z,95441.31
2018-12-30T13:34:09.712Z,95440.21
2018-12-30T13:36:36.066Z,95439.84
2018-12-30T13:39:02.398Z,95441.88
2018-12-30T13:41:28.732Z,95442.03
2018-12-30T13:43:55.056Z,95443.16
2018-12-30T13:46:21.388Z,95443.77
2018-12-30T13:48:47.726Z,95440.75
2018-12-30T13:51:14.061Z,95441.88
2018-12-30T13:53:40.397Z,95445.98
2018-12-30T13:56:06.731Z,95454.32
2018-12-30T13:58:33.123Z,95447.45
2018-12-30T14:00:59.520Z,95447.00
2018-12-30T14:03:25.971Z,95449.91
2018-12-30T14:05:52.260Z,95447.64
2018-12-30T14:08:18.659Z,95444.97
2018-12-30T14:10:45.000Z,95443.80
2018-12-30T14:13:11.376Z,95452.47
2018-12-30T14:15:37.697Z,95444.33
2018-12-30T14:18:04.084Z,95442.33
2018-12-30T14:20:30.427Z,95440.59
2018-12-30T14:22:56.749Z,95447.64
2018-12-30T14:25:23.165Z,95447.72
2018-12-30T14:27:49.542Z,95446.25
2018-12-30T14:30:15.925Z,95444.59
2018-12-30T14:32:42.282Z,95445.42
2018-12-30T14:35:08.658Z,95446.06
2018-12-30T14:37:35.045Z,95440.74
2018-12-30T14:40:01.444Z,95451.56
2018-12-30T14:42:27.821Z,95443.31
2018-12-30T14:44:54.202Z,95449.22
2018-12-30T14:47:20.776Z,95446.31
2018-12-30T14:49:47.113Z,95452.65
2018-12-30T14:52:13.443Z,95457.10
2018-12-30T14:54:39.836Z,95456.38
2018-12-30T14:57:06.179Z,95457.19
2018-12-30T14:59:32.596Z,95456.81
2018-12-30T15:01:58.964Z,95458.91
2018-12-30T15:04:25.296Z,95453.05
2018-12-30T15:06:51.693Z,95455.63
2018-12-30T15:09:18.065Z,95455.24
2018-12-30T15:11:44.474Z,95452.86
2018-12-30T15:14:10.905Z,95452.13
2018-12-30T15:16:37.230Z,95455.60
2018-12-30T15:19:03.559Z,95457.97
2018-12-30T15:21:29.949Z,95458.52
2018-12-30T15:23:56.354Z,95461.64
2018-12-30T15:26:22.743Z,95463.38
2018-12-30T15:28:49.075Z,95469.50
2018-12-30T15:31:15.421Z,95459.43
2018-12-30T15:33:41.806Z,95463.91
2018-12-30T15:36:08.126Z,95465.36
2018-12-30T15:38:34.501Z,95463.50
2018-12-30T15:41:00.842Z,95466.61
2018-12-30T15:43:27.220Z,95464.13
2018-12-30T15:45:53.539Z,95472.81
2018-12-30T15:48:22.172Z,95474.89
2018-12-30T15:50:48.511Z,95471.05
2018-12-30T15:53:14.884Z,95468.28
2018-12-30T15:55:41.207Z,95471.95
2018-12-30T15:58:07.600Z,95472.02
2018-12-30T16:00:33.969Z,95463.61
2018-12-30T16:03:00.296Z,95467.62
2018-12-30T16:05:26.674Z,95477.38
2018-12-30T16:07:53.061Z,95469.08
2018-12-30T16:10:19.400Z,95464.89
2018-12-30T16:12:45.838Z,95465.98
2018-12-30T16:15:12.171Z,95473.74
2018-12-30T16:17:38.502Z,95468.72
2018-12-30T16:20:04.873Z,95468.52
2018-12-30T16:22:31.250Z,95474.91
2018-12-30T16:24:57.631Z,95474.63
2018-12-30T16:27:24.056Z,95469.20
2018-12-30T16:29:50.385Z,95470.66
2018-12-30T16:32:16.857Z,95474.14
2018-12-30T16:34:43.248Z,95483.17
2018-12-30T16:37:09.614Z,95484.62
2018-12-30T16:39:35.973Z,95486.45
2018-12-30T16:42:02.313Z,95483.78
2018-12-30T16:44:28.705Z,95482.77
2018-12-30T16:46:55.052Z,95482.94
2018-12-30T16:49:21.442Z,95485.12
2018-12-30T16:51:47.778Z,95485.95
2018-12-30T16:54:14.118Z,95490.41
2018-12-30T16:56:40.505Z,95484.17
2018-12-30T16:59:06.837Z,95485.45
2018-12-30T17:01:33.228Z,95486.06
2018-12-30T17:03:59.569Z,95490.34
2018-12-30T17:06:26.872Z,95492.24
2018-12-30T17:08:52.291Z,95490.23
2018-12-30T17:11:18.656Z,95495.41
2018-12-30T17:13:44.971Z,95495.86
2018-12-30T17:16:11.379Z,95495.86
2018-12-30T17:18:37.766Z,95496.86
2018-12-30T17:21:04.148Z,95503.35
2018-12-30T17:23:30.483Z,95507.70
2018-12-30T17:25:56.882Z,95503.03
2018-12-30T17:28:23.202Z,95503.13
2018-12-30T17:30:49.541Z,95503.58
2018-12-30T17:33:15.872Z,95505.47
2018-12-30T17:35:42.257Z,95507.64
2018-12-30T17:38:08.634Z,95505.56
2018-12-30T17:40:38.656Z,95511.20
2018-12-30T17:43:04.088Z,95506.78
2018-12-30T17:45:30.455Z,95514.81
2018-12-30T17:47:56.787Z,95511.06
2018-12-30T17:50:23.200Z,95509.41
2018-12-30T17:52:49.500Z,95512.51
2018-12-30T17:55:15.905Z,95515.22
2018-12-30T17:57:42.242Z,95516.12
2018-12-30T18:00:08.646Z,95511.90
2018-12-30T18:02:34.987Z,95508.22
2018-12-30T18:05:01.385Z,95505.16
2018-12-30T18:07:27.833Z,95512.51
2018-12-30T18:09:54.121Z,95509.22
2018-12-30T18:12:20.526Z,95505.47
2018-12-30T18:14:46.837Z,95509.38
2018-12-30T18:17:13.235Z,95510.33
2018-12-30T18:19:39.605Z,95505.95
2018-12-30T18:22:06.000Z,95508.12
2018-12-30T18:24:32.339Z,95512.05
2018-12-30T18:26:58.740Z,95512.50
2018-12-30T18:29:25.022Z,95512.59
2018-12-30T18:31:51.402Z,95513.94
2018-12-30T18:34:17.846Z,95513.55
2018-12-30T18:36:44.194Z,95516.59
2018-12-30T18:39:10.543Z,95510.32
2018-12-30T18:41:36.881Z,95507.77
2018-12-30T18:44:03.273Z,95512.14
2018-12-30T18:46:29.667Z,95510.86
2018-12-30T18:48:56.018Z,95510.57
2018-12-30T18:51:22.369Z,95510.28
2018-12-30T18:53:48.811Z,95510.64
2018-12-30T18:56:15.109Z,95504.78
2018-12-30T18:58:41.478Z,95507.41
2018-12-30T19:01:07.818Z,95507.55
2018-12-30T19:03:34.266Z,95505.92
2018-12-30T19:06:00.581Z,95507.72
2018-12-30T19:08:26.925Z,95508.25
2018-12-30T19:10:53.262Z,95499.31
2018-12-30T19:13:19.615Z,95510.42
2018-12-30T19:15:45.945Z,95506.53
2018-12-30T19:18:12.346Z,95504.58
2018-12-30T19:20:38.710Z,95505.41
2018-12-30T19:23:05.172Z,95505.85
2018-12-30T19:25:31.543Z,95499.97
2018-12-30T19:27:57.976Z,95503.95
2018-12-30T19:30:24.252Z,95501.34
2018-12-30T19:32:50.636Z,95498.84
2018-12-30T19:35:17.041Z,95500.60
2018-12-30T19:37:43.387Z,95500.60
2018-12-30T19:40:09.729Z,95496.00
2018-12-30T19:42:36.136Z,95496.83
2018-12-30T19:45:02.470Z,95495.26
2018-12-30T19:47:28.862Z,95493.53
2018-12-30T19:49:55.284Z,95493.16
2018-12-30T19:52:21.687Z,95491.05
2018-12-30T19:54:48.020Z,95489.02
2018-12-30T19:57:14.357Z,95485.25
2018-12-30T19:59:40.817Z,95492.03
2018-12-30T20:02:07.117Z,95488.80
2018-12-30T20:04:40.420Z,95489.33
2018-12-30T20:06:59.845Z,95488.05
2018-12-30T20:09:26.217Z,95482.94
2018-12-30T20:11:52.538Z,95486.30
2018-12-30T20:14:18.937Z,95487.28
2018-12-30T20:16:45.289Z,95482.62
2018-12-30T20:19:11.764Z,95486.99
2018-12-30T20:21:38.034Z,95486.45
2018-12-30T20:24:04.368Z,95489.16
2018-12-30T20:26:30.796Z,95486.25
2018-12-30T20:28:57.150Z,95487.53
2018-12-30T20:31:23.467Z,95488.03
2018-12-30T20:33:49.907Z,95479.19
2018-12-30T20:36:16.232Z,95483.84
2018-12-30T20:38:42.611Z,95479.19
2018-12-30T20:41:08.955Z,95475.95
2018-12-30T20:43:35.334Z,95479.69
2018-12-30T20:46:01.674Z,95478.06
2018-12-30T20:48:28.047Z,95478.21
2018-12-30T20:50:54.421Z,95479.84
2018-12-30T20:53:20.748Z,95478.21
2018-12-30T20:55:47.159Z,95477.09
2018-12-30T20:58:13.488Z,95476.55
2018-12-30T21:00:39.902Z,95478.03
2018-12-30T21:03:06.275Z,95473.76
2018-12-30T21:05:32.615Z,95477.98
2018-12-30T21:07:58.953Z,95484.90
2018-12-30T21:10:25.407Z,95488.34
2018-12-30T21:12:51.819Z,95484.57
2018-12-30T21:15:18.283Z,95490.06
2018-12-30T21:17:44.776Z,95485.50
2018-12-30T21:20:11.049Z,95489.00
2018-12-30T21:22:40.240Z,95480.83
2018-12-30T21:25:06.575Z,95485.11
2018-12-30T21:27:32.907Z,95483.59
2018-12-30T21:29:59.318Z,95482.41
2018-12-30T21:32:25.629Z,95483.75
2018-12-30T21:34:52.035Z,95488.85
2018-12-30T21:37:18.336Z,95487.58
2018-12-30T21:39:44.736Z,95483.89
2018-12-30T21:42:11.065Z,95486.06
2018-12-30T21:44:37.392Z,95484.88
2018-12-30T21:47:03.722Z,95491.17
2018-12-30T21:49:30.043Z,95489.59
2018-12-30T21:51:56.392Z,95486.98
2018-12-30T21:54:22.738Z,95488.77
2018-12-30T21:56:54.680Z,95485.86
2018-12-30T21:59:15.457Z,95479.53
2018-12-30T22:01:41.850Z,95484.05
2018-12-30T22:04:08.187Z,95482.83
2018-12-30T22:06:34.506Z,95482.94
2018-12-30T22:09:00.902Z,95480.39
2018-12-30T22:11:27.237Z,95477.62
2018-12-30T22:13:53.669Z,95477.84
2018-12-30T22:16:19.946Z,95473.27
2018-12-30T22:18:46.272Z,95477.53
2018-12-30T22:21:12.655Z,95470.32
2018-12-30T22:23:39.003Z,95470.32
2018-12-30T22:26:05.375Z,95467.41
2018-12-30T22:28:31.710Z,95472.97
2018-12-30T22:30:58.110Z,95471.59
2018-12-30T22:33:24.534Z,95467.17
2018-12-30T22:35:50.808Z,95465.52
2018-12-30T22:38:17.196Z,95468.52
2018-12-30T22:40:43.526Z,95466.19
2018-12-30T22:43:09.855Z,95466.19
2018-12-30T22:45:36.229Z,95461.83
2018-12-30T22:48:02.628Z,95462.27
2018-12-30T22:50:28.961Z,95465.80
2018-12-30T22:52:55.350Z,95463.70
2018-12-30T22:55:21.690Z,95458.59
2018-12-30T22:57:48.057Z,95467.08
2018-12-30T23:00:14.447Z,95459.42
2018-12-30T23:02:40.877Z,95461.14
2018-12-30T23:05:07.183Z,95455.59
2018-12-30T23:07:33.559Z,95453.88
2018-12-30T23:09:59.877Z,95452.75
2018-12-30T23:12:26.348Z,95455.30
2018-12-30T23:14:52.692Z,95452.36
2018-12-30T23:17:19.014Z,95449.80
2018-12-30T23:19:45.352Z,95455.74
2018-12-30T23:22:11.693Z,95450.58
2018-12-30T23:24:38.104Z,95449.42
2018-12-30T23:27:04.432Z,95449.89
2018-12-30T23:29:30.762Z,95450.48
2018-12-30T23:31:57.163Z,95448.62
2018-12-30T23:34:23.495Z,95448.67
2018-12-30T23:36:49.804Z,95445.73
2018-12-30T23:39:16.129Z,95449.56
2018-12-30T23:41:42.539Z,95446.21
2018-12-30T23:44:09.389Z,95444.70
2018-12-30T23:46:35.212Z,95450.63
2018-12-30T23:49:01.543Z,95451.82
2018-12-30T23:51:27.998Z,95451.97
2018-12-30T23:53:54.375Z,95450.78
2018-12-30T23:56:20.760Z,95450.78
2018-12-30T23:58:47.099Z,95458.88
